Time;durP1;ratioP1;P1;durP2;ratioP2;P2;SDS_P1;SDS_P2;PMS_P1;PMS_P2;Temp;Humidity;BMP_temperature;BMP_pressure;BME280_temperature;BME280_humidity;BME280_pressure;Samples;Min_cycle;Max_cycle;Signal;HPM_P1;HPM_P2
2021/04/01 00:01:13;;;;;;;60.83;31.00;;;16.80;61.80;;;;;;5074679;28;20040;-67
2021/04/01 00:03:41;;;;;;;60.22;31.08;;;16.80;62.40;;;;;;5074416;28;20060;-67
2021/04/01 00:06:08;;;;;;;66.07;32.28;;;16.80;63.00;;;;;;5074655;28;20031;-67
2021/04/01 00:08:34;;;;;;;65.53;33.40;;;16.70;62.70;;;;;;5074802;28;20024;-67
2021/04/01 00:11:00;;;;;;;68.15;34.40;;;16.70;62.80;;;;;;5073997;28;20357;-66
2021/04/01 00:13:26;;;;;;;73.22;36.17;;;16.70;62.40;;;;;;5074793;28;20036;-67
2021/04/01 00:15:53;;;;;;;71.07;35.55;;;16.70;61.90;;;;;;5074538;28;20032;-67
2021/04/01 00:18:20;;;;;;;73.55;37.63;;;16.70;61.50;;;;;;5073972;28;20071;-67
2021/04/01 00:20:46;;;;;;;71.18;34.83;;;16.60;61.10;;;;;;5088744;28;20441;-66
2021/04/01 00:23:13;;;;;;;75.20;36.92;;;16.60;60.80;;;;;;5074589;28;20078;-66
2021/04/01 00:25:39;;;;;;;75.35;37.30;;;16.60;60.70;;;;;;5073699;28;20044;-67
2021/04/01 00:28:05;;;;;;;74.43;36.78;;;16.60;60.60;;;;;;5074492;28;20020;-67
2021/04/01 00:30:31;;;;;;;80.85;39.03;;;16.60;60.30;;;;;;5074113;28;20476;-67
2021/04/01 00:32:56;;;;;;;80.00;37.72;;;16.50;59.80;;;;;;5073587;28;20043;-66
2021/04/01 00:35:22;;;;;;;80.50;41.03;;;16.60;59.50;;;;;;5073936;28;20040;-67
2021/04/01 00:37:48;;;;;;;83.93;39.13;;;16.50;59.10;;;;;;5074181;28;20392;-67
2021/04/01 00:40:15;;;;;;;80.18;39.45;;;16.50;59.00;;;;;;5073554;28;20507;-67
2021/04/01 00:42:40;;;;;;;85.80;39.97;;;16.40;59.30;;;;;;5074064;28;20066;-67
2021/04/01 00:45:10;;;;;;;88.00;41.30;;;16.40;59.80;;;;;;5073169;28;20076;-67
2021/04/01 00:47:44;;;;;;;93.50;42.85;;;16.40;59.80;;;;;;5074125;28;20025;-67
2021/04/01 00:50:14;;;;;;;89.18;40.53;;;16.40;59.70;;;;;;5074034;28;20047;-67
2021/04/01 00:52:40;;;;;;;86.53;41.33;;;16.30;59.80;;;;;;5055327;28;20028;-67
2021/04/01 00:55:07;;;;;;;85.13;41.35;;;16.30;59.70;;;;;;5073868;28;20166;-67
2021/04/01 00:57:35;;;;;;;98.55;42.80;;;16.30;59.60;;;;;;5073757;28;20503;-67
2021/04/01 01:00:01;;;;;;;93.80;44.45;;;16.30;59.40;;;;;;5072756;28;20131;-67
2021/04/01 01:02:27;;;;;;;95.25;44.10;;;16.20;59.30;;;;;;5073781;28;20029;-67
2021/04/01 01:04:53;;;;;;;111.13;46.53;;;16.20;59.20;;;;;;5073639;28;20407;-67
2021/04/01 01:07:19;;;;;;;99.40;44.05;;;16.20;59.30;;;;;;5072785;28;20029;-67
2021/04/01 01:09:45;;;;;;;103.22;48.30;;;16.20;59.40;;;;;;5073605;28;20039;-67
2021/04/01 01:12:11;;;;;;;95.53;46.25;;;16.20;59.40;;;;;;5073337;28;20029;-67
2021/04/01 01:14:37;;;;;;;94.57;44.67;;;16.10;59.40;;;;;;5072909;28;20039;-67
2021/04/01 01:17:04;;;;;;;92.50;41.13;;;16.10;60.40;;;;;;5073577;28;20376;-66
2021/04/01 01:19:39;;;;;;;95.70;42.60;;;16.10;60.90;;;;;;5073376;28;20454;-67
2021/04/01 01:22:06;;;;;;;93.63;42.53;;;16.10;61.30;;;;;;5072502;28;20096;-67
2021/04/01 01:24:33;;;;;;;91.90;43.20;;;16.10;62.10;;;;;;5073297;28;20040;-67
2021/04/01 01:27:00;;;;;;;90.22;42.03;;;16.10;61.90;;;;;;5073186;28;20475;-67
2021/04/01 01:29:26;;;;;;;89.63;43.50;;;16.00;62.10;;;;;;5072516;28;20035;-67
2021/04/01 01:31:51;;;;;;;88.35;41.05;;;16.10;62.40;;;;;;5073318;28;20021;-67
2021/04/01 01:34:18;;;;;;;94.07;44.05;;;16.00;62.40;;;;;;5072299;28;20090;-67
2021/04/01 01:36:44;;;;;;;84.28;40.58;;;16.10;62.40;;;;;;5073145;28;20032;-67
2021/04/01 01:39:11;;;;;;;84.72;40.83;;;16.10;62.30;;;;;;5072649;28;20047;-67
2021/04/01 01:41:36;;;;;;;88.28;39.45;;;16.00;62.20;;;;;;5072571;28;20105;-67
2021/04/01 01:44:02;;;;;;;76.78;39.78;;;16.00;62.20;;;;;;5072603;28;20519;-67
2021/04/01 01:46:28;;;;;;;93.10;41.78;;;16.00;62.20;;;;;;5072751;28;20107;-67
2021/04/01 01:48:58;;;;;;;89.32;41.50;;;16.00;62.30;;;;;;5071494;28;20117;-67
2021/04/01 01:51:25;;;;;;;91.38;41.40;;;16.10;62.20;;;;;;5072752;28;20024;-67
2021/04/01 01:53:51;;;;;;;79.95;39.22;;;16.00;62.00;;;;;;5072704;28;20068;-67
2021/04/01 01:56:24;;;;;;;78.18;36.80;;;16.00;61.90;;;;;;5072147;28;20392;-67
2021/04/01 01:58:55;;;;;;;75.28;36.00;;;16.10;61.70;;;;;;5054916;28;20060;-66
2021/04/01 02:01:22;;;;;;;82.75;37.65;;;16.00;61.50;;;;;;5072404;28;20051;-67
2021/04/01 02:03:48;;;;;;;78.78;38.92;;;16.00;61.50;;;;;;5072070;28;20036;-67
2021/04/01 02:06:17;;;;;;;69.97;34.90;;;15.90;61.40;;;;;;5072455;28;20137;-67
2021/04/01 02:08:43;;;;;;;79.63;35.88;;;15.90;61.50;;;;;;5072743;28;20380;-67
2021/04/01 02:11:09;;;;;;;87.47;40.72;;;15.80;61.50;;;;;;5072078;28;20024;-66
2021/04/01 02:13:34;;;;;;;77.20;36.38;;;15.80;61.80;;;;;;5072630;28;20029;-66
2021/04/01 02:16:00;;;;;;;80.90;37.85;;;15.80;62.00;;;;;;5072624;28;20033;-67
2021/04/01 02:18:28;;;;;;;84.53;36.75;;;15.70;62.10;;;;;;5071870;28;20131;-66
2021/04/01 02:20:55;;;;;;;69.82;35.03;;;15.70;62.10;;;;;;5072349;28;20488;-66
2021/04/01 02:23:24;;;;;;;74.50;35.60;;;15.70;61.90;;;;;;5072596;28;20079;-67
2021/04/01 02:25:51;;;;;;;74.32;34.00;;;15.70;61.90;;;;;;5071815;28;20064;-67
2021/04/01 02:28:20;;;;;;;74.47;35.53;;;15.70;61.90;;;;;;5076326;28;20024;-66
2021/04/01 02:30:50;;;;;;;65.05;32.28;;;15.70;61.90;;;;;;5074848;28;20036;-67
2021/04/01 02:33:20;;;;;;;68.15;32.80;;;15.60;62.40;;;;;;5075704;28;20462;-67
2021/04/01 02:35:46;;;;;;;69.47;32.05;;;15.60;61.90;;;;;;5083419;28;20028;-67
2021/04/01 02:38:12;;;;;;;68.57;33.20;;;15.60;62.00;;;;;;5074941;28;20597;-67
2021/04/01 02:40:38;;;;;;;72.38;34.75;;;15.60;62.10;;;;;;5086403;28;20106;-66
2021/04/01 02:43:05;;;;;;;75.32;34.60;;;15.50;62.00;;;;;;5072308;28;20035;-67
2021/04/01 02:45:31;;;;;;;69.00;34.25;;;15.50;62.00;;;;;;5071929;28;20118;-67
2021/04/01 02:47:57;;;;;;;70.78;32.58;;;15.50;62.20;;;;;;5059602;28;20020;-67
2021/04/01 02:50:24;;;;;;;63.67;31.58;;;15.40;62.00;;;;;;5081015;28;20028;-67
2021/04/01 02:52:50;;;;;;;63.90;30.05;;;15.40;62.10;;;;;;5071578;28;20025;-66
2021/04/01 02:55:16;;;;;;;63.72;29.55;;;15.40;62.90;;;;;;5072420;28;20040;-66
2021/04/01 02:57:42;;;;;;;67.15;31.33;;;15.30;63.30;;;;;;5071993;28;20036;-66
2021/04/01 03:00:12;;;;;;;60.58;29.70;;;15.30;63.20;;;;;;5074644;28;20079;-67
2021/04/01 03:02:39;;;;;;;70.03;30.92;;;15.20;63.30;;;;;;5075740;28;20032;-67
2021/04/01 03:05:07;;;;;;;68.15;33.00;;;15.20;63.20;;;;;;5082281;28;20479;-67
2021/04/01 03:07:36;;;;;;;65.15;31.33;;;15.20;63.20;;;;;;5083055;28;20078;-67
2021/04/01 03:10:04;;;;;;;52.45;26.00;;;15.10;63.20;;;;;;5075849;28;20082;-66
2021/04/01 03:12:29;;;;;;;54.60;27.25;;;15.10;64.00;;;;;;5076003;28;20043;-67
2021/04/01 03:14:55;;;;;;;61.33;28.92;;;15.00;64.40;;;;;;5074818;28;20029;-67
2021/04/01 03:17:21;;;;;;;65.28;30.98;;;15.00;64.90;;;;;;5075704;28;20024;-67
2021/04/01 03:19:46;;;;;;;73.93;32.88;;;14.90;65.70;;;;;;5074911;28;20115;-67
2021/04/01 03:22:12;;;;;;;71.65;33.00;;;14.80;66.40;;;;;;5075861;28;20496;-67
2021/04/01 03:24:38;;;;;;;80.60;36.25;;;14.70;66.80;;;;;;5075510;28;20384;-67
2021/04/01 03:27:04;;;;;;;92.20;40.30;;;14.60;66.70;;;;;;5074494;28;20024;-67
2021/04/01 03:29:29;;;;;;;95.43;44.67;;;14.50;67.10;;;;;;5075485;28;20036;-66
2021/04/01 03:31:55;;;;;;;99.50;45.83;;;14.40;67.20;;;;;;5075261;28;20025;-67
2021/04/01 03:34:21;;;;;;;101.32;47.92;;;14.40;66.80;;;;;;5077393;28;20067;-66
2021/04/01 03:36:48;;;;;;;108.80;46.15;;;14.30;66.90;;;;;;5079820;28;20020;-67
2021/04/01 03:39:14;;;;;;;104.45;48.42;;;14.20;67.00;;;;;;5081795;28;20028;-66
2021/04/01 03:41:40;;;;;;;107.03;45.35;;;14.10;67.20;;;;;;5082688;28;20047;-67
2021/04/01 03:44:06;;;;;;;106.13;45.45;;;14.10;67.30;;;;;;5075017;28;20365;-66
2021/04/01 03:46:31;;;;;;;105.75;47.53;;;14.10;67.40;;;;;;5075532;28;20102;-67
2021/04/01 03:48:57;;;;;;;106.05;45.35;;;14.00;67.30;;;;;;5074469;28;20476;-67
2021/04/01 03:51:23;;;;;;;109.72;50.20;;;14.00;67.50;;;;;;5075247;28;20491;-67
2021/04/01 03:53:49;;;;;;;110.00;45.97;;;13.90;67.30;;;;;;5074892;28;20032;-71
2021/04/01 03:56:14;;;;;;;106.75;48.63;;;13.90;67.60;;;;;;5074281;28;20024;-67
2021/04/01 04:04:01;;;;;;;99.63;44.50;;;13.80;67.90;;;;;;5089042;28;20519;-67
2021/04/01 04:11:43;;;;;;;109.15;47.63;;;13.70;68.30;;;;;;5090867;28;20028;-67
2021/04/01 04:14:14;;;;;;;100.95;43.65;;;13.70;68.60;;;;;;5094148;28;20078;-67
2021/04/01 04:16:41;;;;;;;88.53;36.55;;;13.60;69.10;;;;;;5088604;28;20456;-67
2021/04/01 04:19:07;;;;;;;70.35;32.28;;;13.60;70.10;;;;;;5092144;28;20024;-67
2021/04/01 04:21:33;;;;;;;50.80;20.83;;;13.50;70.90;;;;;;5090220;28;20484;-67
2021/04/01 04:24:04;;;;;;;35.05;14.95;;;13.40;72.00;;;;;;5093342;28;20042;-67
2021/04/01 04:26:29;;;;;;;34.55;14.15;;;13.30;71.80;;;;;;5091653;28;20035;-66
2021/04/01 04:28:55;;;;;;;30.05;9.88;;;13.30;71.80;;;;;;5092915;28;20467;-66
2021/04/01 04:31:23;;;;;;;26.27;8.23;;;13.20;72.20;;;;;;5093016;28;20028;-67
2021/04/01 04:33:49;;;;;;;30.48;8.07;;;13.10;72.40;;;;;;5091518;28;20378;-67
2021/04/01 04:36:15;;;;;;;26.65;7.03;;;13.00;72.40;;;;;;5091529;28;20103;-67
2021/04/01 04:38:40;;;;;;;25.92;7.22;;;13.00;72.50;;;;;;5091863;28;20063;-67
2021/04/01 04:41:06;;;;;;;22.67;5.50;;;13.00;71.90;;;;;;5093875;28;20034;-67
2021/04/01 04:43:33;;;;;;;19.20;4.57;;;12.90;71.70;;;;;;5091333;28;20510;-67
2021/04/01 04:45:59;;;;;;;10.73;3.40;;;12.90;71.50;;;;;;5088154;28;20032;-67
2021/04/01 04:48:27;;;;;;;25.60;3.65;;;12.90;71.60;;;;;;5092104;28;20035;-67
2021/04/01 04:50:52;;;;;;;14.63;2.80;;;12.80;71.90;;;;;;5091723;28;20119;-67
2021/04/01 04:53:18;;;;;;;15.45;3.67;;;12.70;72.20;;;;;;5091397;28;20106;-67
2021/04/01 04:59:15;;;;;;;15.65;2.97;;;12.70;71.70;;;;;;5057324;28;20029;-67
2021/04/01 05:09:15;;;;;;;15.23;2.42;;;12.50;72.50;;;;;;5090298;28;20055;-67
2021/04/01 05:11:40;;;;;;;9.15;1.65;;;12.40;72.90;;;;;;5091879;28;20097;-67
2021/04/01 05:14:06;;;;;;;14.43;2.75;;;12.30;73.30;;;;;;5091440;28;20035;-71
2021/04/01 05:16:32;;;;;;;21.02;3.25;;;12.30;73.70;;;;;;5090434;28;20020;-71
2021/04/01 05:18:59;;;;;;;10.98;2.13;;;12.20;73.50;;;;;;5092059;28;20035;-74
2021/04/01 05:21:52;;;;;;;13.52;2.47;;;12.20;74.30;;;;;;5087338;28;20036;-78
2021/04/01 05:24:11;;;;;;;14.95;2.67;;;12.10;74.50;;;;;;5083080;28;20101;-75
2021/04/01 05:29:11;;;;;;;16.08;2.58;;;12.10;74.40;;;;;;5092067;28;20035;-67
2021/04/01 05:31:39;;;;;;;14.48;2.33;;;12.00;74.60;;;;;;5090938;28;20020;-67
2021/04/01 05:34:05;;;;;;;20.92;3.78;;;12.00;74.00;;;;;;5092197;28;20029;-68
2021/04/01 05:36:35;;;;;;;13.68;2.70;;;12.00;73.40;;;;;;5088201;28;20094;-68
2021/04/01 05:39:01;;;;;;;15.15;2.40;;;12.00;73.20;;;;;;5074586;28;20041;-67
2021/04/01 05:41:29;;;;;;;12.73;2.92;;;12.00;72.80;;;;;;5088423;28;20035;-67
2021/04/01 05:44:16;;;;;;;12.52;2.45;;;12.00;72.50;;;;;;5087011;28;20055;-67
2021/04/01 06:00:35;;;;;;;22.85;2.92;;;12.00;71.60;;;;;;5087950;28;20048;-66
2021/04/01 06:05:42;;;;;;;16.17;2.40;;;12.00;72.10;;;;;;5088397;28;20042;-68
2021/04/01 06:08:14;;;;;;;9.73;2.08;;;12.00;72.00;;;;;;5090165;28;20027;-69
2021/04/01 06:10:40;;;;;;;17.08;2.40;;;11.90;72.40;;;;;;5087624;28;20036;-70
2021/04/01 06:13:16;;;;;;;8.18;1.90;;;11.90;72.50;;;;;;5089652;28;20031;-67
2021/04/01 06:15:49;;;;;;;14.02;2.50;;;11.90;72.60;;;;;;5090072;28;20024;-68
2021/04/01 06:18:17;;;;;;;18.30;2.92;;;11.80;72.80;;;;;;5090700;28;20032;-67
2021/04/01 06:20:48;;;;;;;16.83;3.40;;;11.90;73.10;;;;;;5088002;28;20028;-67
2021/04/01 06:23:27;;;;;;;17.85;3.67;;;11.80;73.30;;;;;;5083492;28;20465;-67
2021/04/01 06:25:57;;;;;;;23.80;3.70;;;11.80;73.40;;;;;;5086036;28;20495;-66
2021/04/01 06:28:43;;;;;;;17.67;3.22;;;11.80;73.90;;;;;;5090499;28;20055;-67
2021/04/01 06:31:10;;;;;;;15.40;2.55;;;11.80;74.20;;;;;;5087639;28;20040;-67
2021/04/01 06:33:44;;;;;;;14.00;2.17;;;11.70;74.20;;;;;;5089963;28;20040;-67
2021/04/01 06:36:21;;;;;;;9.32;1.50;;;11.70;74.20;;;;;;5093566;28;20024;-67
2021/04/01 06:38:47;;;;;;;19.70;2.67;;;11.70;74.90;;;;;;5090810;28;20024;-67
2021/04/01 06:41:23;;;;;;;17.58;2.67;;;11.70;75.20;;;;;;5091604;28;20036;-67
2021/04/01 06:43:55;;;;;;;31.52;4.05;;;11.70;75.20;;;;;;5090949;28;20048;-67
2021/04/01 06:46:27;;;;;;;19.80;2.95;;;11.60;75.50;;;;;;5083019;28;20107;-67
2021/04/01 06:51:49;;;;;;;19.85;3.28;;;11.50;76.30;;;;;;5083280;28;20040;-67
2021/04/01 06:54:54;;;;;;;26.70;3.78;;;11.50;76.40;;;;;;5084206;28;20529;-67
2021/04/01 06:57:29;;;;;;;23.65;4.18;;;11.50;76.60;;;;;;5078898;28;20036;-67
2021/04/01 07:00:10;;;;;;;;;;;11.50;76.60;;;;;;5082072;28;20052;-67
2021/04/01 07:02:42;;;;;;;12.25;3.05;;;11.40;77.00;;;;;;5085472;28;20397;-67
2021/04/01 07:05:26;;;;;;;19.98;2.47;;;11.40;77.00;;;;;;5082652;28;20099;-67
2021/04/01 07:08:01;;;;;;;14.60;3.67;;;11.40;77.20;;;;;;5083907;28;20400;-67
2021/04/01 07:11:24;;;;;;;10.95;2.13;;;11.30;77.70;;;;;;5085073;28;20024;-67
2021/04/01 07:13:35;;;;;;;9.38;2.55;;;11.30;77.80;;;;;;5075420;28;20036;-67
2021/04/01 07:16:17;;;;;;;16.80;4.43;;;11.30;78.20;;;;;;5086712;28;20058;-67
2021/04/01 07:19:17;;;;;;;11.45;2.38;;;11.20;78.00;;;;;;5065078;28;20076;-67
2021/04/01 07:47:24;;;;;;;7.32;1.70;;;11.20;79.50;;;;;;5074033;28;20025;-66
2021/04/01 07:49:51;;;;;;;2.83;1.48;;;11.20;79.70;;;;;;5084809;28;20032;-67
2021/04/01 07:52:27;;;;;;;4.15;1.33;;;11.20;79.90;;;;;;5079298;28;20032;-67
2021/04/01 08:00:23;;;;;;;7.30;1.50;;;11.20;79.20;;;;;;5074903;28;20056;-67
2021/04/01 08:03:03;;;;;;;6.15;1.52;;;11.20;79.20;;;;;;5074456;28;20017;-67
2021/04/01 08:05:40;;;;;;;17.77;2.67;;;11.30;79.70;;;;;;5074832;28;20434;-67
2021/04/01 08:08:10;;;;;;;12.13;2.22;;;11.30;79.50;;;;;;5074529;28;20112;-67
2021/04/01 08:10:40;;;;;;;11.23;1.92;;;11.30;79.30;;;;;;5074832;28;20491;-67
2021/04/01 08:13:11;;;;;;;11.50;1.75;;;11.30;79.70;;;;;;5074699;28;20505;-67
2021/04/01 08:15:46;;;;;;;15.10;1.83;;;11.30;79.30;;;;;;5074281;28;20032;-67
2021/04/01 08:20:42;;;;;;;10.30;2.30;;;11.40;78.80;;;;;;5074728;28;20024;-66
2021/04/01 08:23:15;;;;;;;14.25;1.77;;;11.30;78.20;;;;;;5073630;28;20031;-67
2021/04/01 08:28:43;;;;;;;12.63;3.00;;;11.40;78.60;;;;;;5074632;28;20086;-67
2021/04/01 08:36:23;;;;;;;12.63;1.98;;;11.40;77.80;;;;;;5073790;28;20104;-67
2021/04/01 08:38:49;;;;;;;11.55;1.58;;;11.50;78.20;;;;;;5074232;28;20047;-67
2021/04/01 08:41:28;;;;;;;11.30;2.58;;;11.40;78.80;;;;;;5074219;28;20367;-67
2021/04/01 08:44:09;;;;;;;9.48;2.10;;;11.50;77.60;;;;;;5073279;28;20041;-67
2021/04/01 08:46:53;;;;;;;15.68;3.35;;;11.50;78.30;;;;;;5074419;28;20035;-67
2021/04/01 08:49:36;;;;;;;14.75;2.10;;;11.60;78.20;;;;;;5074045;28;20020;-67
2021/04/01 08:52:05;;;;;;;11.73;1.95;;;11.60;78.00;;;;;;5073375;28;20047;-67
2021/04/01 08:55:05;;;;;;;9.82;2.50;;;11.50;78.20;;;;;;5080224;28;20032;-67
2021/04/01 08:57:54;;;;;;;15.50;2.63;;;11.50;78.20;;;;;;5093104;28;20040;-67
2021/04/01 09:00:21;;;;;;;14.02;2.53;;;11.60;77.90;;;;;;5093936;28;20048;-67
2021/04/01 09:02:54;;;;;;;9.75;2.03;;;11.60;78.40;;;;;;5093809;28;20024;-67
2021/04/01 09:05:20;;;;;;;10.07;1.98;;;11.60;78.60;;;;;;5082269;28;20185;-67
2021/04/01 09:08:07;;;;;;;9.77;1.92;;;11.60;77.90;;;;;;5073521;28;20464;-67
2021/04/01 09:10:38;;;;;;;13.48;2.80;;;11.60;78.50;;;;;;5073776;28;20032;-67
2021/04/01 09:13:16;;;;;;;10.77;2.20;;;11.60;78.40;;;;;;5072849;28;20024;-67
2021/04/01 09:18:31;;;;;;;14.38;2.45;;;11.70;77.80;;;;;;5073347;28;20102;-67
2021/04/01 09:21:01;;;;;;;17.23;3.08;;;11.70;77.70;;;;;;5073554;28;20108;-67
2021/04/01 09:23:38;;;;;;;11.18;2.47;;;11.70;77.40;;;;;;5073348;28;20040;-67
2021/04/01 09:26:08;;;;;;;15.45;2.83;;;11.70;78.50;;;;;;5072528;28;20033;-67
2021/04/01 09:28:37;;;;;;;12.68;2.05;;;11.70;78.00;;;;;;5080045;28;20071;-67
2021/04/01 09:31:05;;;;;;;12.68;2.80;;;11.80;78.50;;;;;;5093474;28;20039;-67
2021/04/01 09:33:34;;;;;;;18.58;3.35;;;11.70;76.90;;;;;;5092741;28;20024;-67
2021/04/01 09:36:07;;;;;;;22.25;2.83;;;11.70;77.70;;;;;;5093228;28;20384;-67
2021/04/01 09:38:37;;;;;;;15.07;2.90;;;11.80;77.90;;;;;;5074548;28;20029;-67
2021/04/01 09:41:03;;;;;;;25.92;3.38;;;11.80;77.80;;;;;;5072535;28;20161;-67
2021/04/01 09:43:29;;;;;;;18.67;3.40;;;11.80;77.30;;;;;;5072921;28;20164;-67
2021/04/01 09:45:58;;;;;;;9.90;1.92;;;11.80;77.50;;;;;;5072961;28;20075;-67
2021/04/01 09:48:31;;;;;;;28.52;4.32;;;11.80;78.00;;;;;;5072332;28;20036;-67
2021/04/01 09:51:00;;;;;;;17.63;3.58;;;11.80;76.30;;;;;;5072768;28;20027;-67
2021/04/01 09:53:27;;;;;;;13.93;2.35;;;11.80;76.70;;;;;;5072817;28;20413;-67
2021/04/01 09:55:55;;;;;;;12.00;2.55;;;11.80;77.10;;;;;;5071994;28;20024;-67
2021/04/01 09:58:24;;;;;;;15.63;2.72;;;11.80;76.80;;;;;;5073016;28;20075;-67
2021/04/01 10:03:33;;;;;;;17.42;2.33;;;11.90;76.80;;;;;;5072827;28;20021;-67
2021/04/01 10:05:59;;;;;;;8.15;2.05;;;11.80;77.30;;;;;;5072565;28;20475;-67
2021/04/01 10:08:27;;;;;;;12.25;2.70;;;11.80;78.00;;;;;;5071304;28;20078;-67
2021/04/01 10:10:56;;;;;;;10.27;1.73;;;11.80;77.90;;;;;;5072558;28;20040;-66
2021/04/01 10:13:29;;;;;;;19.65;3.28;;;11.90;77.60;;;;;;5072950;28;20021;-65
2021/04/01 10:15:57;;;;;;;12.63;2.33;;;11.90;77.90;;;;;;5053832;28;20039;-66
2021/04/01 10:18:33;;;;;;;8.15;2.47;;;11.90;77.00;;;;;;5072676;28;20051;-72
2021/04/01 10:21:00;;;;;;;;;;;11.90;76.00;;;;;;5072957;28;20055;-69
2021/04/01 10:23:27;;;;;;;17.02;3.05;;;11.90;77.50;;;;;;5071904;28;19904;-71
2021/04/01 10:26:03;;;;;;;14.20;3.47;;;11.90;76.20;;;;;;5073002;28;20040;-71
2021/04/01 10:28:41;;;;;;;15.18;2.90;;;11.90;76.80;;;;;;5072307;28;20029;-71
2021/04/01 10:31:17;;;;;;;17.58;3.10;;;11.90;77.90;;;;;;5085880;28;20071;-72
2021/04/01 10:34:08;;;;;;;11.55;2.17;;;11.90;76.70;;;;;;5072496;28;20471;-67
2021/04/01 10:36:39;;;;;;;9.88;2.38;;;11.90;77.50;;;;;;5092417;28;20030;-67
2021/04/01 10:39:09;;;;;;;11.52;1.75;;;11.90;76.00;;;;;;5086648;28;20036;-67
2021/04/01 10:41:50;;;;;;;8.95;1.80;;;11.90;77.40;;;;;;5090737;28;20078;-67
2021/04/01 10:44:17;;;;;;;8.60;1.83;;;11.90;76.70;;;;;;5082440;28;20101;-67
2021/04/01 10:46:55;;;;;;;7.38;1.63;;;12.00;76.60;;;;;;5089864;28;20391;-67
2021/04/01 10:49:23;;;;;;;9.70;2.20;;;12.00;77.50;;;;;;5091178;28;20035;-67
2021/04/01 10:52:01;;;;;;;12.20;1.70;;;12.00;77.10;;;;;;5089048;28;20148;-67
2021/04/01 10:54:45;;;;;;;18.83;3.05;;;12.00;76.90;;;;;;5078856;28;20025;-67
2021/04/01 10:57:13;;;;;;;8.60;2.55;;;12.00;76.50;;;;;;5077944;28;20055;-67
2021/04/01 10:59:46;;;;;;;7.57;1.52;;;12.00;76.50;;;;;;5078635;28;20381;-67
2021/04/01 11:02:23;;;;;;;20.45;3.42;;;12.00;76.50;;;;;;5088950;28;20442;-67
2021/04/01 11:04:58;;;;;;;24.35;2.97;;;12.00;75.40;;;;;;5084932;28;20032;-67
2021/04/01 11:07:28;;;;;;;16.98;2.22;;;12.10;76.60;;;;;;5091102;28;20024;-67
2021/04/01 11:09:56;;;;;;;24.85;2.92;;;12.10;75.70;;;;;;5079327;28;20090;-67
2021/04/01 11:12:21;;;;;;;8.68;1.90;;;12.10;76.20;;;;;;5080334;28;20024;-67
2021/04/01 11:14:53;;;;;;;12.50;2.03;;;12.10;75.30;;;;;;5088130;28;20097;-67
2021/04/01 11:17:23;;;;;;;11.77;2.58;;;12.10;75.20;;;;;;5091478;28;20046;-67
2021/04/01 11:19:52;;;;;;;10.18;2.28;;;12.10;74.70;;;;;;5089090;28;20024;-68
2021/04/01 11:22:18;;;;;;;12.32;2.42;;;12.10;75.50;;;;;;5084719;28;20115;-68
2021/04/01 11:24:44;;;;;;;8.85;1.95;;;12.10;74.30;;;;;;5078379;28;20044;-68
2021/04/01 11:27:20;;;;;;;10.23;1.77;;;12.10;75.10;;;;;;5078173;28;20024;-68
2021/04/01 11:29:55;;;;;;;13.75;2.80;;;12.10;75.10;;;;;;5088003;28;20039;-68
2021/04/01 11:32:30;;;;;;;8.02;1.90;;;12.20;75.00;;;;;;5091928;28;20426;-68
2021/04/01 11:35:02;;;;;;;10.07;2.30;;;12.10;75.70;;;;;;5092438;28;20036;-67
2021/04/01 11:37:37;;;;;;;15.27;2.85;;;12.20;75.40;;;;;;5092131;28;20038;-67
2021/04/01 11:40:08;;;;;;;14.15;2.22;;;12.20;75.20;;;;;;5093682;28;20036;-67
2021/04/01 11:42:34;;;;;;;9.45;1.85;;;12.20;74.90;;;;;;5090867;28;20070;-67
2021/04/01 11:45:05;;;;;;;9.82;1.85;;;12.20;75.10;;;;;;5092044;28;20443;-67
2021/04/01 11:47:32;;;;;;;11.95;2.28;;;12.20;74.90;;;;;;5090244;28;20032;-67
2021/04/01 11:50:03;;;;;;;11.48;2.25;;;12.20;73.50;;;;;;5093495;28;20031;-67
2021/04/01 11:52:29;;;;;;;4.85;1.92;;;12.20;74.00;;;;;;5093401;28;20028;-67
2021/04/01 11:54:55;;;;;;;6.97;1.63;;;12.20;75.10;;;;;;5092578;28;20032;-67
2021/04/01 11:57:29;;;;;;;13.45;2.35;;;12.20;74.70;;;;;;5091673;28;20020;-67
2021/04/01 12:00:07;;;;;;;9.43;2.38;;;12.20;73.70;;;;;;5082481;28;20403;-67
2021/04/01 12:03:21;;;;;;;4.80;1.27;;;12.20;73.90;;;;;;5091025;28;20031;-67
2021/04/01 12:05:49;;;;;;;11.02;1.80;;;12.30;74.70;;;;;;5092429;28;20403;-67
2021/04/01 12:08:16;;;;;;;14.57;2.22;;;12.20;74.60;;;;;;5091212;28;20591;-70
2021/04/01 12:10:53;;;;;;;14.75;1.88;;;12.30;74.00;;;;;;5092736;28;20028;-68
2021/04/01 12:13:20;;;;;;;14.20;2.63;;;12.20;74.90;;;;;;5091878;28;20106;-71
2021/04/01 12:15:45;;;;;;;8.90;1.77;;;12.20;72.80;;;;;;5092409;28;20040;-70
2021/04/01 12:18:11;;;;;;;9.10;1.27;;;12.30;73.60;;;;;;5092854;28;20081;-66
2021/04/01 12:20:37;;;;;;;4.85;1.63;;;12.20;74.50;;;;;;5093756;28;20626;-67
2021/04/01 12:23:16;;;;;;;6.30;1.80;;;12.20;74.50;;;;;;5089596;28;20024;-67
2021/04/01 12:25:43;;;;;;;8.93;1.00;;;12.20;74.10;;;;;;5090615;28;20035;-68
2021/04/01 12:28:18;;;;;;;5.85;1.75;;;12.20;74.90;;;;;;5077190;28;20032;-68
2021/04/01 12:30:48;;;;;;;7.38;1.60;;;12.20;74.10;;;;;;5091402;28;20532;-69
2021/04/01 12:33:20;;;;;;;2.30;0.60;;;12.20;73.80;;;;;;5088601;28;20024;-69
2021/04/01 12:36:12;;;;;;;7.68;1.55;;;12.20;73.00;;;;;;5073141;28;20034;-69
2021/04/01 12:38:41;;;;;;;4.35;1.30;;;12.20;73.80;;;;;;5086744;28;20055;-67
2021/04/01 12:41:20;;;;;;;7.18;1.90;;;12.20;73.50;;;;;;5090655;28;20028;-67
2021/04/01 12:43:46;;;;;;;14.50;1.80;;;12.20;73.70;;;;;;5090767;28;20031;-68
2021/04/01 12:46:11;;;;;;;3.45;1.25;;;12.20;73.60;;;;;;5091273;28;20024;-68
2021/04/01 12:48:38;;;;;;;8.55;1.73;;;12.20;75.00;;;;;;5090389;28;20024;-67
2021/04/01 12:51:05;;;;;;;7.47;1.73;;;12.10;74.50;;;;;;5088013;28;20119;-68
2021/04/01 12:53:32;;;;;;;4.28;1.10;;;12.10;73.50;;;;;;5092760;28;20468;-68
2021/04/01 12:56:11;;;;;;;6.35;1.58;;;12.10;75.10;;;;;;5087418;28;20032;-67
2021/04/01 12:58:46;;;;;;;5.90;1.67;;;12.20;74.80;;;;;;5089913;28;20042;-67
2021/04/01 13:01:33;;;;;;;6.15;1.40;;;12.10;73.70;;;;;;5069092;28;20068;-68
2021/04/01 13:04:04;;;;;;;6.45;1.45;;;12.10;73.70;;;;;;5089204;28;20471;-68
2021/04/01 13:07:03;;;;;;;10.45;2.50;;;12.10;74.30;;;;;;5087992;28;20047;-69
2021/04/01 13:09:35;;;;;;;7.00;1.63;;;12.20;75.30;;;;;;5086972;28;20369;-69
2021/04/01 13:12:10;;;;;;;13.30;2.22;;;12.10;75.00;;;;;;5088985;28;20085;-69
2021/04/01 13:14:36;;;;;;;11.48;1.83;;;12.10;74.30;;;;;;5088825;28;20047;-69
2021/04/01 13:17:01;;;;;;;8.95;1.17;;;12.10;75.40;;;;;;5089927;28;20039;-68
2021/04/01 13:19:27;;;;;;;3.67;1.27;;;12.10;75.60;;;;;;5070789;28;20036;-68
2021/04/01 13:22:05;;;;;;;4.55;1.17;;;12.10;75.50;;;;;;5089488;28;20024;-69
2021/04/01 13:25:16;;;;;;;9.93;2.20;;;12.20;75.40;;;;;;5089347;28;20124;-69
2021/04/01 13:27:18;;;;;;;6.07;1.95;;;12.10;75.20;;;;;;5085246;28;20040;-69
2021/04/01 13:29:53;;;;;;;8.75;1.67;;;12.20;75.90;;;;;;5090074;28;20036;-68
2021/04/01 13:32:35;;;;;;;8.63;1.58;;;12.20;76.10;;;;;;5090838;28;20028;-69
2021/04/01 13:35:15;;;;;;;10.13;2.70;;;12.20;76.00;;;;;;5087877;28;20433;-68
2021/04/01 13:37:50;;;;;;;4.75;1.60;;;12.10;74.20;;;;;;5089883;28;20067;-69
2021/04/01 13:40:20;;;;;;;3.58;1.15;;;12.10;74.90;;;;;;5089725;28;20548;-68
2021/04/01 13:42:50;;;;;;;0.88;0.35;;;12.10;75.50;;;;;;5089685;28;20543;-68
2021/04/01 13:45:19;;;;;;;2.25;1.02;;;12.10;75.00;;;;;;5089922;28;20044;-68
2021/04/01 13:47:49;;;;;;;8.40;1.67;;;12.10;75.30;;;;;;5089516;28;20024;-68
2021/04/01 13:50:18;;;;;;;11.40;1.85;;;12.10;75.20;;;;;;5091168;28;20081;-68
2021/04/01 13:52:55;;;;;;;5.65;1.98;;;12.10;73.30;;;;;;5078280;28;20503;-78
2021/04/01 13:55:26;;;;;;;6.50;1.73;;;12.10;71.70;;;;;;5082877;28;20028;-78
2021/04/01 14:09:10;;;;;;;5.00;1.30;;;12.10;73.50;;;;;;5086955;28;20038;-79
2021/04/01 14:11:39;;;;;;;6.47;1.13;;;12.20;73.40;;;;;;5076933;28;20048;-82
2021/04/01 14:14:06;;;;;;;5.00;1.00;;;12.20;73.60;;;;;;5084970;28;20039;-83
2021/04/01 14:16:33;;;;;;;9.23;1.60;;;12.20;73.10;;;;;;5089256;28;20038;-76
2021/04/01 14:18:59;;;;;;;6.45;1.60;;;12.20;73.90;;;;;;5089629;28;20028;-76
2021/04/01 14:21:25;;;;;;;6.70;1.55;;;12.30;74.10;;;;;;5089121;28;20067;-76
2021/04/01 14:23:52;;;;;;;7.65;1.52;;;12.30;74.60;;;;;;5090816;28;20075;-76
2021/04/01 14:28:49;;;;;;;10.40;1.63;;;12.30;72.30;;;;;;5087509;28;20028;-78
2021/04/01 14:31:15;;;;;;;9.20;1.70;;;12.30;71.10;;;;;;5090231;28;20028;-71
2021/04/01 14:33:43;;;;;;;5.10;1.45;;;12.30;72.10;;;;;;5084330;28;20043;-75
2021/04/01 14:36:11;;;;;;;7.80;1.67;;;12.40;73.10;;;;;;5087483;28;20028;-83